Terminal Aerodrome Forecast
Issued by NWS Charleston, WV

Current Version | Previous Version | Graphics & Text | Print | Product List | Glossary On
Versions: 1 2 3 4 5 6 7 8 9 10 11 12 13 14 15 16 17 18 19 20
747
FTUS41 KRLX 031513 AAB
TAFBKW
TAF AMD
KBKW 031513Z 0315/0412 23009G20KT 3SM SHRA SCT015 BKN050 OVC080
     FM031700 22009G16KT P6SM BKN030
     FM032100 23010G16KT P6SM SCT060
     FM040700 28006KT P6SM BKN020=

USA.gov is the U.S. government's official web portal to all federal, state and local government web resources and services.